| Date | Time | Temp. (oF) | Dew Point (oF) | Rel. Hum. (%) | Press. (in.) | Wind Dir. | Wind Speed (mph) | Hourly Rainfall (in.) |
|
|---|---|---|---|---|---|---|---|---|---|
| 1 | 01/19 | 00:00 | 27 | 25 | 95 | 29.80 | SSW | 3 | 0.00 |
| 2 | 01/18 | 23:00 | 26 | 25 | 96 | 29.79 | NNE | 0 | 0.00 |
| 3 | 01/18 | 22:00 | 28 | 27 | 96 | 29.79 | NNE | 0 | 0.00 |
| 4 | 01/18 | 21:00 | 29 | 28 | 96 | 29.79 | S | 0 | 0.00 |
| 5 | 01/18 | 20:00 | 31 | 29 | 96 | 29.78 | S | 0 | 0.00 |
| 6 | 01/18 | 19:00 | 32 | 30 | 96 | 29.79 | W | 4 | 0.00 |
| 7 | 01/18 | 18:00 | 32 | 30 | 96 | 29.77 | W | 0 | 0.00 |
| 8 | 01/18 | 17:00 | 33 | 31 | 96 | 29.76 | SW | 0 | 0.00 |
| 9 | 01/18 | 16:00 | 35 | 33 | 95 | 29.74 | SW | 4 | 0.02 |
| 10 | 01/18 | 15:00 | 35 | 33 | 95 | 29.72 | WSW | 0 | 0.00 |
| 11 | 01/18 | 14:00 | 35 | 33 | 95 | 29.73 | WSW | 3 | 0.00 |
| 12 | 01/18 | 13:00 | 34 | 32 | 96 | 29.77 | E | 0 | 0.00 |
| 13 | 01/18 | 12:00 | 33 | 31 | 96 | 29.84 | SE | 0 | 0.00 |
| 14 | 01/18 | 11:00 | 33 | 32 | 97 | 29.91 | NNW | 5 | 0.00 |
| 15 | 01/18 | 10:00 | 32 | 31 | 97 | 29.92 | E | 4 | 0.00 |
| 16 | 01/18 | 09:00 | 30 | 29 | 97 | 29.96 | SSE | 2 | 0.00 |
| 17 | 01/18 | 08:00 | 28 | 27 | 97 | 29.97 | E | 0 | 0.00 |
| 18 | 01/18 | 07:00 | 27 | 26 | 97 | 30.01 | NNE | 2 | 0.00 |
| 19 | 01/18 | 06:00 | 24 | 23 | 97 | 30.02 | SE | 4 | 0.00 |
| 20 | 01/18 | 05:00 | 24 | 23 | 97 | 30.05 | ENE | 2 | 0.00 |
| 21 | 01/18 | 04:00 | 24 | 22 | 95 | 30.07 | ENE | 0 | 0.00 |
| 22 | 01/18 | 03:00 | 26 | 24 | 93 | 30.09 | ENE | 1 | 0.00 |
| 23 | 01/18 | 02:00 | 26 | 23 | 89 | 30.12 | SSE | 0 | 0.00 |
| 24 | 01/18 | 01:00 | 26 | 22 | 86 | 30.13 | SSE | 2 | 0.00 |